createdAt,value
2018-03-21T00:00:50.517Z,4.34
2018-03-21T00:06:41.167Z,2.83
2018-03-21T00:12:31.733Z,2.68
2018-03-21T00:18:22.334Z,2.58
2018-03-21T00:24:12.869Z,2.51
2018-03-21T00:30:03.461Z,2.53
2018-03-21T00:35:54.113Z,2.61
2018-03-21T00:41:44.702Z,3.27
2018-03-21T00:47:35.294Z,3.38
2018-03-21T00:53:25.861Z,4.3
2018-03-21T00:59:16.433Z,4.83
2018-03-21T01:05:07.080Z,6.31
2018-03-21T01:10:57.594Z,5.1
2018-03-21T01:16:48.196Z,4.93
2018-03-21T01:22:38.848Z,5.89
2018-03-21T01:28:29.373Z,7.65
2018-03-21T01:34:19.954Z,7.83
2018-03-21T01:40:10.599Z,9.23
2018-03-21T01:46:01.186Z,9.51
2018-03-21T01:51:51.778Z,9.72
2018-03-21T01:57:42.380Z,10.36
2018-03-21T02:03:33.001Z,9.35
2018-03-21T02:09:23.516Z,10.09
2018-03-21T02:15:14.097Z,5.83
2018-03-21T02:21:04.770Z,10.01
2018-03-21T02:26:55.272Z,8.72
2018-03-21T02:32:45.843Z,12.59
2018-03-21T02:38:36.511Z,9.16
2018-03-21T02:44:27.046Z,13.69
2018-03-21T02:50:17.616Z,10
2018-03-21T02:56:08.290Z,11.65
2018-03-21T03:01:58.804Z,11.6
2018-03-21T03:07:49.369Z,14.73
2018-03-21T03:13:40.000Z,12.86
2018-03-21T03:19:30.617Z,14.41
2018-03-21T03:25:21.215Z,14.57
2018-03-21T03:31:11.743Z,14.64
2018-03-21T03:37:02.386Z,15.13
2018-03-21T03:42:52.953Z,18.49
2018-03-21T03:48:43.497Z,13.79
2018-03-21T03:54:34.108Z,19.07
2018-03-21T04:00:24.713Z,15.86
2018-03-21T04:06:15.364Z,15.41
2018-03-21T04:12:05.889Z,18.52
2018-03-21T04:17:56.544Z,18.89
2018-03-21T04:23:47.031Z,17.77
2018-03-21T04:29:37.612Z,18.64
2018-03-21T04:35:28.233Z,17.61
2018-03-21T04:41:18.834Z,16.31
2018-03-21T04:47:09.433Z,13.97
2018-03-21T04:53:00.051Z,15.4
2018-03-21T04:58:50.610Z,12.48
2018-03-21T05:04:41.284Z,16.01
2018-03-21T05:10:31.795Z,10.86
2018-03-21T05:16:22.358Z,15.13
2018-03-21T05:22:12.912Z,11.39
2018-03-21T05:28:03.509Z,9.9
2018-03-21T05:33:54.158Z,12.83
2018-03-21T05:39:44.686Z,8
2018-03-21T05:45:35.295Z,9.46
2018-03-21T05:51:25.861Z,10.03
2018-03-21T05:57:16.429Z,9.27
2018-03-21T06:03:07.025Z,8.63
2018-03-21T06:08:57.660Z,12.88
2018-03-21T06:14:48.223Z,12.38
2018-03-21T06:20:38.818Z,16.17
2018-03-21T06:26:29.382Z,14.04
2018-03-21T06:32:19.977Z,14.05
2018-03-21T06:38:10.524Z,18.89
2018-03-21T06:44:01.158Z,16.86
2018-03-21T06:49:51.745Z,16.05
2018-03-21T06:55:42.314Z,21.21
2018-03-21T07:01:32.907Z,8.51
2018-03-21T07:07:23.509Z,14.69
2018-03-21T07:13:14.056Z,13.29
2018-03-21T07:19:04.652Z,12.67
2018-03-21T07:24:55.255Z,17.81
2018-03-21T07:30:45.797Z,15.47
2018-03-21T07:36:36.386Z,16.45
2018-03-21T07:42:26.946Z,11.06
2018-03-21T07:48:17.542Z,13.28
2018-03-21T07:54:08.190Z,14.12
2018-03-21T07:59:58.786Z,19.24
2018-03-21T08:05:49.320Z,10.35
2018-03-21T08:11:39.927Z,10.41
2018-03-21T08:17:30.510Z,13.56
2018-03-21T08:23:21.044Z,7.01
2018-03-21T08:29:11.661Z,8.4
2018-03-21T08:35:02.290Z,7.9
2018-03-21T08:40:52.889Z,9.36
2018-03-21T08:46:43.478Z,9.32
2018-03-21T08:52:34.085Z,8.46
2018-03-21T08:58:25.660Z,8.41
2018-03-21T09:04:15.273Z,10.95
2018-03-21T09:10:05.853Z,9.22
2018-03-21T09:15:56.420Z,9.48
2018-03-21T09:21:47.018Z,10.08
2018-03-21T09:27:37.632Z,9.29
2018-03-21T09:33:28.262Z,8.26
2018-03-21T09:39:18.874Z,11.83
2018-03-21T09:45:09.437Z,12.68
2018-03-21T09:51:00.053Z,9.6
2018-03-21T09:56:50.660Z,9.08
2018-03-21T10:02:41.312Z,9.92
2018-03-21T10:08:31.883Z,10
2018-03-21T10:14:22.525Z,12.65
2018-03-21T10:20:13.147Z,10.03
2018-03-21T10:26:03.742Z,8.75
2018-03-21T10:31:54.416Z,9.36
2018-03-21T10:37:44.969Z,11.83
2018-03-21T10:43:35.581Z,12.07
2018-03-21T10:49:26.136Z,12.98
2018-03-21T10:55:16.753Z,13.64
2018-03-21T11:01:07.358Z,12.12
2018-03-21T11:06:57.971Z,10.02
2018-03-21T11:12:48.563Z,14.65
2018-03-21T11:18:39.155Z,20.96
2018-03-21T11:24:29.802Z,14.34
2018-03-21T11:30:20.362Z,15.27
2018-03-21T11:36:10.991Z,11.18
2018-03-21T11:42:01.585Z,14.55
2018-03-21T11:47:52.158Z,10.82
2018-03-21T11:53:42.761Z,13
2018-03-21T11:59:33.382Z,18.44
2018-03-21T12:05:24.038Z,13.03
2018-03-21T12:11:14.595Z,13.05
2018-03-21T12:17:05.216Z,16.99
2018-03-21T12:22:55.780Z,14.82
2018-03-21T12:28:46.395Z,14.36
2018-03-21T12:34:36.981Z,18.38
2018-03-21T12:40:27.574Z,12.98
2018-03-21T12:46:18.173Z,14.53
2018-03-21T12:52:08.788Z,10.43
2018-03-21T12:57:59.474Z,14.77
2018-03-21T13:03:49.988Z,18.31
2018-03-21T13:09:40.608Z,13.32
2018-03-21T13:15:31.242Z,14.24
2018-03-21T13:21:21.826Z,17.55
2018-03-21T13:27:12.394Z,18.15
2018-03-21T13:33:03.041Z,16.06
2018-03-21T13:38:53.587Z,13.64
2018-03-21T13:44:44.267Z,10.8
2018-03-21T13:50:34.903Z,18.03
2018-03-21T13:56:25.435Z,15.56
2018-03-21T14:02:16.079Z,15.31
2018-03-21T14:08:06.651Z,14.93
2018-03-21T14:13:57.300Z,13.74
2018-03-21T14:19:47.885Z,15.57
2018-03-21T14:25:38.456Z,14.79
2018-03-21T14:31:29.071Z,14.38
2018-03-21T14:37:19.671Z,14.18
2018-03-21T14:43:10.283Z,14.91
2018-03-21T14:49:00.890Z,15.89
2018-03-21T14:54:51.497Z,13.81
2018-03-21T15:00:42.126Z,14.15
2018-03-21T15:06:32.718Z,15.26
2018-03-21T15:12:23.340Z,19.05
2018-03-21T15:18:13.953Z,13.39
2018-03-21T15:24:04.602Z,16.96
2018-03-21T15:29:55.150Z,10.56
2018-03-21T15:35:45.769Z,10.18
2018-03-21T15:41:36.362Z,14.71
2018-03-21T15:47:26.964Z,16.37
2018-03-21T15:53:17.598Z,16.85
2018-03-21T15:59:08.201Z,22.06
2018-03-21T16:04:58.785Z,15.04
2018-03-21T16:10:49.442Z,13.71
2018-03-21T16:16:40.034Z,15.6
2018-03-21T16:22:30.652Z,15.88
2018-03-21T16:28:21.228Z,10.26
2018-03-21T16:34:11.813Z,13.31
2018-03-21T16:40:02.554Z,11.51
2018-03-21T16:45:53.024Z,15.81
2018-03-21T16:51:43.582Z,11.98
2018-03-21T16:57:34.213Z,11.4
2018-03-21T17:03:24.801Z,16.62
2018-03-21T17:09:15.391Z,14.94
2018-03-21T17:15:05.976Z,13.84
2018-03-21T17:20:56.566Z,9.55
2018-03-21T17:26:47.210Z,7.96
2018-03-21T17:32:37.849Z,11.71
2018-03-21T17:38:28.335Z,13.58
2018-03-21T17:44:18.943Z,16.43
2018-03-21T17:50:09.554Z,17.83
2018-03-21T17:56:00.123Z,11.97
2018-03-21T18:01:50.717Z,17.83
2018-03-21T18:07:41.397Z,14.06
2018-03-21T18:13:31.921Z,15.74
2018-03-21T18:19:22.485Z,19.98
2018-03-21T18:25:13.088Z,12.74
2018-03-21T18:31:03.684Z,16.71
2018-03-21T18:36:54.283Z,13.05
2018-03-21T18:42:44.879Z,17.23
2018-03-21T18:48:35.490Z,15.4
2018-03-21T18:54:26.000Z,15.24
2018-03-21T19:00:16.657Z,23.11
2018-03-21T19:06:07.254Z,18.34
2018-03-21T19:11:57.785Z,19.92
2018-03-21T19:17:48.498Z,17.09
2018-03-21T19:23:39.110Z,16.16
2018-03-21T19:29:29.739Z,12.28
2018-03-21T19:35:20.316Z,15.74
2018-03-21T19:41:10.869Z,16.83
2018-03-21T19:47:01.484Z,15.58
2018-03-21T19:52:52.095Z,13.14
2018-03-21T19:58:42.694Z,18.42
2018-03-21T20:04:33.309Z,16.29
2018-03-21T20:10:23.854Z,16.92
2018-03-21T20:16:14.504Z,16.47
2018-03-21T20:22:05.026Z,18.85
2018-03-21T20:27:55.616Z,17.25
2018-03-21T20:33:46.209Z,17.77
2018-03-21T20:39:36.775Z,19.85
2018-03-21T20:45:27.355Z,16.01
2018-03-21T20:51:17.961Z,16.52
2018-03-21T20:57:08.551Z,18.9
2018-03-21T21:02:59.144Z,17.7
2018-03-21T21:08:49.726Z,17.94
2018-03-21T21:14:40.288Z,22.91
2018-03-21T21:20:30.934Z,16.64
2018-03-21T21:26:21.547Z,13.42
2018-03-21T21:32:12.081Z,15.63
2018-03-21T21:38:02.637Z,17.65
2018-03-21T21:43:53.242Z,16.54
2018-03-21T21:49:43.807Z,19.17
2018-03-21T21:55:34.382Z,16.82
2018-03-21T22:01:24.992Z,19.59
2018-03-21T22:07:15.593Z,12.85
2018-03-21T22:13:06.202Z,17.81
2018-03-21T22:18:56.738Z,17.99
2018-03-21T22:24:47.288Z,15.59
2018-03-21T22:30:37.923Z,14.66
2018-03-21T22:36:28.528Z,17.3
2018-03-21T22:42:19.116Z,18.06
2018-03-21T22:48:09.658Z,18.8
2018-03-21T22:54:00.252Z,18.98
2018-03-21T22:59:50.840Z,19.69
2018-03-21T23:05:41.455Z,17.08
2018-03-21T23:11:32.036Z,20.21
2018-03-21T23:17:22.609Z,17.89
2018-03-21T23:23:13.269Z,20.2
2018-03-21T23:29:03.774Z,16.9
2018-03-21T23:34:54.367Z,12.28
2018-03-21T23:40:44.927Z,17.2
2018-03-21T23:46:35.577Z,14.95
2018-03-21T23:52:26.227Z,14.39
2018-03-21T23:58:16.660Z,18.01
